EA5AFP-10 Weather Reports


Display with metric or nautical units.
time (UTC)temp
F
wind
direction
speed
MPH
gust
MPH
rain 1hr
in
rain 24hr
in
rain mn
in
humidity
%
barometer
mb
20230128165311 45 247 0.0 1.0 0.00 0.00 0.00 6 1013.7
20230128164416 46 247 1.0 2.0 0.00 0.00 0.00 6 1013.6
20230128163511 48 112 0.0 1.0 0.00 0.00 0.00 5 1013.8
20230128162541 48 112 1.0 3.0 0.00 0.00 0.00 5 1013.7
20230128161546 49 90 2.0 3.0 0.00 0.00 0.00 5 1013.6
20230128160741 49 90 3.0 6.0 0.00 0.00 0.00 5 1013.4
20230128155811 50 112 3.0 4.0 0.00 0.00 0.00 5 1013.5
20230128154831 50 67 3.0 6.0 0.00 0.00 0.00 4 1013.2
20230128153841 51 90 3.0 4.0 0.00 0.00 0.00 4 1013.2
20230128152951 50 67 5.0 6.0 0.00 0.00 0.00 4 1013.0
20230128152059 51 112 3.0 6.0 0.00 0.00 0.00 4 1012.8
20230128151105 51 90 5.0 8.0 0.00 0.00 0.00 4 1012.7
20230128150133 50 90 5.0 6.0 0.00 0.00 0.00 4 1012.8
20230128145256 51 90 5.0 8.0 0.00 0.00 0.00 4 1012.6
20230128144336 51 67 6.0 10.0 0.00 0.00 0.00 4 1012.4
20230128143441 52 112 3.0 3.0 0.00 0.00 0.00 4 1012.3
20230128142601 52 67 3.0 4.0 0.00 0.00 0.00 4 1012.2
20230128141606 51 67 5.0 6.0 0.00 0.00 0.00 4 1012.1
20230128140616 51 67 4.0 8.0 0.00 0.00 0.00 4 1012.1
20230128135726 52 45 4.0 6.0 0.00 0.00 0.00 4 1012.0
20230128134801 52 45 2.0 3.0 0.00 0.00 0.00 4 1012.0
20230128133855 53 67 4.0 9.0 0.00 0.00 0.00 4 1012.1
20230128132934 52 90 5.0 8.0 0.00 0.00 0.00 4 1012.3
20230128131955 51 90 6.0 9.0 0.00 0.00 0.00 4 1012.4
20230128131145 52 45 2.0 6.0 0.00 0.00 0.00 4 1012.4
20230128130305 51 67 5.0 8.0 0.00 0.00 0.00 4 1012.4
20230128125356 52 112 3.0 4.0 0.00 0.00 0.00 4 1012.6
20230128124520 51 45 5.0 8.0 0.00 0.00 0.00 4 1012.5
20230128123529 52 67 4.0 9.0 0.00 0.00 0.00 4 1012.7
20230128122614 51 45 5.0 8.0 0.00 0.00 0.00 4 1012.9
20230128120811 53 135 1.0 2.0 0.00 0.00 0.00 4 1013.0
20230128115836 52 270 2.0 4.0 0.00 0.00 0.00 4 1013.2
20230128114951 52 315 3.0 6.0 0.00 0.00 0.00 4 1013.1
20230128114026 52 270 3.0 4.0 0.00 0.00 0.00 4 1013.3
20230128113126 52 292 0.0 1.0 0.00 0.00 0.00 4 1013.4
20230128112239 51 315 2.0 3.0 0.00 0.00 0.00 4 1013.4
20230128111306 51 247 3.0 6.0 0.00 0.00 0.00 4 1013.7
20230128110408 50 292 2.0 3.0 0.00 0.00 0.00 4 1013.8
20230128105437 50 270 3.0 6.0 0.00 0.00 0.00 4 1013.9
20230128104604 50 247 4.0 9.0 0.00 0.00 0.00 4 1013.8
20230128103736 49 225 4.0 6.0 0.00 0.00 0.00 4 1013.8
20230128102901 49 270 5.0 6.0 0.00 0.00 0.00 4 1014.0
20230128102001 49 270 5.0 8.0 0.00 0.00 0.00 4 1014.0
20230128101046 48 247 4.0 6.0 0.00 0.00 0.00 4 1013.9
20230128100126 47 225 5.0 9.0 0.00 0.00 0.00 4 1013.9
20230128095146 47 270 6.0 10.0 0.00 0.00 0.00 4 1013.9
20230128094156 46 225 6.0 11.0 0.00 0.00 0.00 4 1014.1
20230128093251 46 247 5.0 8.0 0.00 0.00 0.00 5 1014.0
20230128092311 45 337 4.0 8.0 0.00 0.00 0.00 5 1013.7
20230128091500 45 225 4.0 6.0 0.00 0.00 0.00 5 1013.6
20230128090511 45 292 3.0 4.0 0.00 0.00 0.00 5 1013.5
20230128085709 44 292 3.0 6.0 0.00 0.00 0.00 5 1013.4
20230128084731 44 292 4.0 6.0 0.00 0.00 0.00 5 1013.3
20230128083846 44 315 3.0 6.0 0.00 0.00 0.00 5 1013.5
20230128083036 43 270 3.0 6.0 0.00 0.00 0.00 5 1013.3
20230128082226 42 292 3.0 6.0 0.00 0.00 0.00 5 1013.2
20230128081256 41 270 6.0 9.0 0.00 0.00 0.00 6 1013.1
20230128080311 41 202 5.0 10.0 0.00 0.00 0.00 5 1013.1
20230128075431 41 270 3.0 4.0 0.00 0.00 0.00 5 1012.9
20230128074521 40 270 6.0 10.0 0.00 0.00 0.00 6 1013.0
20230128073700 40 270 4.0 8.0 0.00 0.00 0.00 6 1012.9
20230128072716 41 247 8.0 13.0 0.00 0.00 0.00 5 1012.7
20230128071911 41 292 5.0 8.0 0.00 0.00 0.00 5 1012.7
20230128070946 42 315 3.0 6.0 0.00 0.00 0.00 5 1012.7
20230128070031 42 292 3.0 6.0 0.00 0.00 0.00 5 1012.7
20230128065151 41 247 3.0 6.0 0.00 0.00 0.00 5 1012.5
20230128064214 41 270 3.0 4.0 0.00 0.00 0.00 5 1012.4
20230128063308 41 225 1.0 3.0 0.00 0.00 0.00 5 1012.4
20230128062506 41 292 5.0 9.0 0.00 0.00 0.00 5 1012.2
20230128061554 41 292 6.0 9.0 0.00 0.00 0.00 5 1012.2
20230128060746 41 270 3.0 6.0 0.00 0.00 0.00 5 1012.2
20230128055846 41 292 3.0 8.0 0.00 0.00 0.00 5 1011.9
20230128054946 42 292 3.0 6.0 0.00 0.00 0.00 5 1012.0
20230128054033 41 292 3.0 4.0 0.00 0.00 0.00 5 1012.0
20230128053051 41 270 3.0 6.0 0.00 0.00 0.00 5 1011.7
20230128052221 41 270 0.0 3.0 0.00 0.00 0.00 5 1011.8
20230128051226 42 292 4.0 8.0 0.00 0.00 0.00 5 1011.8
20230128050326 41 270 2.0 3.0 0.00 0.00 0.00 5 1011.7
20230128045323 41 292 3.0 6.0 0.00 0.00 0.00 5 1011.6
20230128044341 39 157 1.0 2.0 0.00 0.00 0.00 6 1011.7
20230128043431 39 112 1.0 2.0 0.00 0.00 0.00 6 1011.8
20230128042621 41 247 1.0 2.0 0.00 0.00 0.00 5 1011.7
20230128040809 38 0 0.0 1.0 0.00 0.00 0.00 7 1011.8
20230128035921 39 112 1.0 3.0 0.00 0.00 0.00 6 1011.9
20230128034931 39 0 0.0 1.0 0.00 0.00 0.00 6 1011.8
20230128034046 42 315 3.0 6.0 0.00 0.00 0.00 5 1011.7
20230128033236 42 270 6.0 9.0 0.00 0.00 0.00 6 1011.7
20230128032251 42 225 5.0 9.0 0.00 0.00 0.00 6 1011.7
20230128031440 41 292 3.0 6.0 0.00 0.00 0.00 6 1011.6
20230128030521 40 157 0.0 2.0 0.00 0.00 0.00 6 1011.7
20230128025720 40 270 3.0 6.0 0.00 0.00 0.00 6 1011.7
20230128024831 38 225 0.0 1.0 0.00 0.00 0.00 6 1011.6
20230128023919 41 225 2.0 2.0 0.00 0.00 0.00 6 1011.6
20230128023005 42 270 3.0 6.0 0.00 0.00 0.00 6 1011.7
20230128022054 41 292 0.0 3.0 0.00 0.00 0.00 6 1011.7
20230128021114 41 202 0.0 1.0 0.00 0.00 0.00 6 1011.7
20230128020150 42 292 3.0 6.0 0.00 0.00 0.00 6 1011.7
20230128015346 42 292 3.0 9.0 0.00 0.00 0.00 6 1011.6
20230128014526 42 292 3.0 6.0 0.00 0.00 0.00 6 1011.8
20230128013605 42 202 4.0 6.0 0.00 0.00 0.00 6 1011.7
20230128012636 42 247 2.0 3.0 0.00 0.00 0.00 6 1011.6
20230128011811 42 270 6.0 12.0 0.00 0.00 0.00 6 1011.5
20230128010836 42 292 6.0 9.0 0.00 0.00 0.00 5 1011.5
20230128010001 42 315 3.0 6.0 0.00 0.00 0.00 5 1011.6
20230128005131 42 292 3.0 6.0 0.00 0.00 0.00 5 1011.6
20230128004210 42 315 3.0 6.0 0.00 0.00 0.00 5 1011.4
20230128003331 43 292 1.0 4.0 0.00 0.00 0.00 5 1011.6
20230128002436 43 315 3.0 6.0 0.00 0.00 0.00 5 1011.5
20230128001550 43 315 3.0 6.0 0.00 0.00 0.00 5 1011.2
20230128000646 43 270 2.0 6.0 0.00 0.00 0.00 5 1011.4
20230127235823 43 337 0.0 2.0 0.00 0.00 0.00 5 1011.4
20230127234941 44 270 3.0 4.0 0.00 0.00 0.00 5 1011.4
20230127234036 44 315 3.0 4.0 0.00 0.00 0.00 5 1011.5
20230127233152 44 292 3.0 8.0 0.00 0.00 0.00 5 1011.4
20230127232221 44 292 4.0 6.0 0.00 0.00 0.00 5 1011.6
20230127231349 44 270 2.0 6.0 0.00 0.00 0.00 5 1011.5
20230127230544 43 270 1.0 3.0 0.00 0.00 0.00 6 1011.5
20230127225709 40 202 1.0 3.0 0.00 0.00 0.00 7 1011.6
20230127224829 41 270 0.0 1.0 0.00 0.00 0.00 6 1011.6
20230127223900 40 0 0.0 0.0 0.00 0.00 0.00 7 1011.6
20230127223023 41 180 1.0 2.0 0.00 0.00 0.00 6 1011.6
20230127222204 42 270 0.0 1.0 0.00 0.00 0.00 6 1011.4
20230127221211 42 270 0.0 2.0 0.00 0.00 0.00 6 1011.3
20230127220230 40 0 0.0 0.0 0.00 0.00 0.00 7 1011.3
20230127215421 41 270 0.0 1.0 0.00 0.00 0.00 7 1011.2
20230127214616 40 247 0.0 2.0 0.00 0.00 0.00 7 1011.1
20230127213756 39 0 0.0 0.0 0.00 0.00 0.00 7 1011.0
20230127212825 39 0 0.0 0.0 0.00 0.00 0.00 7 1011.1
20230127211927 40 315 1.0 2.0 0.00 0.00 0.00 7 1011.0
20230127211036 39 202 3.0 3.0 0.00 0.00 0.00 7 1010.9
20230127210046 41 270 1.0 2.0 0.00 0.00 0.00 6 1010.9
20230127205059 41 0 0.0 0.0 0.00 0.00 0.00 6 1010.7
20230127204101 41 270 0.0 1.0 0.00 0.00 0.00 6 1010.6
20230127203146 41 0 0.0 0.0 0.00 0.00 0.00 6 1010.6
20230127202301 41 0 0.0 0.0 0.00 0.00 0.00 6 1010.5
20230127200331 42 0 0.0 1.0 0.00 0.00 0.00 6 1010.5
20230127195331 43 270 3.0 3.0 0.00 0.00 0.00 6 1010.3
20230127194416 42 270 1.0 2.0 0.00 0.00 0.00 6 1010.2
20230127193521 42 270 0.0 2.0 0.00 0.00 0.00 6 1010.0
20230127192621 42 315 0.0 1.0 0.00 0.00 0.00 6 1010.0
20230127191633 43 270 1.0 2.0 0.00 0.00 0.00 6 1009.8
20230127190746 43 270 3.0 4.0 0.00 0.00 0.00 6 1009.6
20230127185926 43 270 1.0 3.0 0.00 0.00 0.00 6 1009.6
20230127184937 43 270 3.0 4.0 0.00 0.00 0.00 6 1009.4
20230127184101 43 270 3.0 3.0 0.00 0.00 0.00 6 1009.3
20230127183101 44 247 2.0 3.0 0.00 0.00 0.00 6 1009.2
20230127182152 43 270 3.0 4.0 0.00 0.00 0.00 6 1009.1
20230127181210 44 270 2.0 2.0 0.00 0.00 0.00 6 1009.0
20230127180401 44 270 2.0 3.0 0.00 0.00 0.00 6 1008.9
20230127175536 44 270 2.0 3.0 0.00 0.00 0.00 6 1009.0
20230127174548 44 270 3.0 4.0 0.00 0.00 0.00 6 1008.8
20230127173556 45 270 3.0 4.0 0.00 0.00 0.00 5 1008.6
20230127172612 45 270 2.0 3.0 0.00 0.00 0.00 5 1008.7
20230127171646 46 270 1.0 2.0 0.00 0.00 0.00 5 1008.4
20230127170801 46 270 1.0 3.0 0.00 0.00 0.00 5 1008.5
20230127165925 47 270 1.0 2.0 0.00 0.00 0.00 5 1008.4